sensor_id;sensor_type;location;lat;lon;timestamp;temperature;humidity
11239;DHT22;5677;48.488;13.436;2023-06-04T00:02:14;20.10;53.60
11239;DHT22;5677;48.488;13.436;2023-06-04T00:04:42;20.10;53.60
11239;DHT22;5677;48.488;13.436;2023-06-04T00:07:08;20.10;53.50
11239;DHT22;5677;48.488;13.436;2023-06-04T00:09:35;20.10;53.60
11239;DHT22;5677;48.488;13.436;2023-06-04T00:12:02;20.10;53.70
11239;DHT22;5677;48.488;13.436;2023-06-04T00:14:29;20.10;53.60
11239;DHT22;5677;48.488;13.436;2023-06-04T00:16:55;20.00;53.50
11239;DHT22;5677;48.488;13.436;2023-06-04T00:19:22;20.00;53.60
11239;DHT22;5677;48.488;13.436;2023-06-04T00:21:50;20.00;53.70
11239;DHT22;5677;48.488;13.436;2023-06-04T00:24:17;20.00;53.70
11239;DHT22;5677;48.488;13.436;2023-06-04T00:26:44;20.00;53.80
11239;DHT22;5677;48.488;13.436;2023-06-04T00:29:11;20.00;53.80
11239;DHT22;5677;48.488;13.436;2023-06-04T00:31:38;20.00;53.90
11239;DHT22;5677;48.488;13.436;2023-06-04T00:34:04;20.00;53.90
11239;DHT22;5677;48.488;13.436;2023-06-04T00:36:31;20.00;53.90
11239;DHT22;5677;48.488;13.436;2023-06-04T00:38:59;20.00;54.00
11239;DHT22;5677;48.488;13.436;2023-06-04T00:41:26;20.00;54.10
11239;DHT22;5677;48.488;13.436;2023-06-04T00:43:53;20.00;54.20
11239;DHT22;5677;48.488;13.436;2023-06-04T00:46:22;20.00;54.20
11239;DHT22;5677;48.488;13.436;2023-06-04T00:48:50;20.00;54.30
11239;DHT22;5677;48.488;13.436;2023-06-04T00:51:18;20.00;54.50
11239;DHT22;5677;48.488;13.436;2023-06-04T00:53:45;20.00;54.60
11239;DHT22;5677;48.488;13.436;2023-06-04T00:56:14;20.00;54.60
11239;DHT22;5677;48.488;13.436;2023-06-04T00:58:40;19.90;54.60
11239;DHT22;5677;48.488;13.436;2023-06-04T01:01:15;19.90;54.60
11239;DHT22;5677;48.488;13.436;2023-06-04T01:03:47;19.90;54.60
11239;DHT22;5677;48.488;13.436;2023-06-04T01:06:19;19.90;54.60
11239;DHT22;5677;48.488;13.436;2023-06-04T01:08:49;19.90;54.70
11239;DHT22;5677;48.488;13.436;2023-06-04T01:11:18;19.90;54.80
11239;DHT22;5677;48.488;13.436;2023-06-04T01:13:44;19.90;54.80
11239;DHT22;5677;48.488;13.436;2023-06-04T01:16:12;20.00;55.00
11239;DHT22;5677;48.488;13.436;2023-06-04T01:18:41;19.90;55.00
11239;DHT22;5677;48.488;13.436;2023-06-04T01:21:10;19.90;55.10
11239;DHT22;5677;48.488;13.436;2023-06-04T01:23:44;19.90;55.10
11239;DHT22;5677;48.488;13.436;2023-06-04T01:26:12;19.90;55.20
11239;DHT22;5677;48.488;13.436;2023-06-04T01:28:41;19.90;55.20
11239;DHT22;5677;48.488;13.436;2023-06-04T01:31:08;19.90;55.10
11239;DHT22;5677;48.488;13.436;2023-06-04T01:33:36;19.90;55.30
11239;DHT22;5677;48.488;13.436;2023-06-04T01:36:03;19.90;55.30
11239;DHT22;5677;48.488;13.436;2023-06-04T01:38:31;19.80;55.50
11239;DHT22;5677;48.488;13.436;2023-06-04T01:40:58;19.90;55.60
11239;DHT22;5677;48.488;13.436;2023-06-04T01:43:27;19.90;56.00
11239;DHT22;5677;48.488;13.436;2023-06-04T01:45:55;19.90;56.00
11239;DHT22;5677;48.488;13.436;2023-06-04T01:48:22;19.90;56.10
11239;DHT22;5677;48.488;13.436;2023-06-04T01:50:48;19.90;56.20
11239;DHT22;5677;48.488;13.436;2023-06-04T01:53:15;19.90;56.40
11239;DHT22;5677;48.488;13.436;2023-06-04T01:55:42;19.90;56.70
11239;DHT22;5677;48.488;13.436;2023-06-04T01:58:10;19.80;56.90
11239;DHT22;5677;48.488;13.436;2023-06-04T02:00:36;19.80;57.00
11239;DHT22;5677;48.488;13.436;2023-06-04T02:03:05;19.80;57.10
11239;DHT22;5677;48.488;13.436;2023-06-04T02:05:31;19.80;57.10
11239;DHT22;5677;48.488;13.436;2023-06-04T02:07:58;19.80;57.20
11239;DHT22;5677;48.488;13.436;2023-06-04T02:10:27;19.80;57.30
11239;DHT22;5677;48.488;13.436;2023-06-04T02:12:56;19.80;56.70
11239;DHT22;5677;48.488;13.436;2023-06-04T02:15:23;19.80;56.20
11239;DHT22;5677;48.488;13.436;2023-06-04T02:17:53;19.80;56.20
11239;DHT22;5677;48.488;13.436;2023-06-04T02:20:22;19.80;56.30
11239;DHT22;5677;48.488;13.436;2023-06-04T02:22:48;19.80;56.30
11239;DHT22;5677;48.488;13.436;2023-06-04T02:25:15;19.80;56.10
11239;DHT22;5677;48.488;13.436;2023-06-04T02:27:42;19.80;56.10
11239;DHT22;5677;48.488;13.436;2023-06-04T02:30:09;19.80;56.00
11239;DHT22;5677;48.488;13.436;2023-06-04T02:32:36;19.80;55.70
11239;DHT22;5677;48.488;13.436;2023-06-04T02:35:05;19.80;55.70
11239;DHT22;5677;48.488;13.436;2023-06-04T02:37:33;19.80;55.70
11239;DHT22;5677;48.488;13.436;2023-06-04T02:40:00;19.80;55.80
11239;DHT22;5677;48.488;13.436;2023-06-04T02:42:27;19.80;55.70
11239;DHT22;5677;48.488;13.436;2023-06-04T02:44:53;19.80;55.60
11239;DHT22;5677;48.488;13.436;2023-06-04T02:47:20;19.80;55.40
11239;DHT22;5677;48.488;13.436;2023-06-04T02:49:47;19.70;55.40
11239;DHT22;5677;48.488;13.436;2023-06-04T02:52:13;19.70;55.50
11239;DHT22;5677;48.488;13.436;2023-06-04T02:54:42;19.80;55.30
11239;DHT22;5677;48.488;13.436;2023-06-04T02:57:08;19.70;55.30
11239;DHT22;5677;48.488;13.436;2023-06-04T02:59:35;19.70;55.30
11239;DHT22;5677;48.488;13.436;2023-06-04T03:02:04;19.70;55.40
11239;DHT22;5677;48.488;13.436;2023-06-04T03:04:30;19.70;55.40
11239;DHT22;5677;48.488;13.436;2023-06-04T03:07:00;19.70;55.50
11239;DHT22;5677;48.488;13.436;2023-06-04T03:09:28;19.70;55.40
11239;DHT22;5677;48.488;13.436;2023-06-04T03:11:57;19.70;55.40
11239;DHT22;5677;48.488;13.436;2023-06-04T03:14:27;19.70;55.40
11239;DHT22;5677;48.488;13.436;2023-06-04T03:16:58;19.70;55.40
11239;DHT22;5677;48.488;13.436;2023-06-04T03:19:26;19.70;55.60
11239;DHT22;5677;48.488;13.436;2023-06-04T03:21:53;19.70;55.60
11239;DHT22;5677;48.488;13.436;2023-06-04T03:24:20;19.70;55.70
11239;DHT22;5677;48.488;13.436;2023-06-04T03:26:46;19.70;55.70
11239;DHT22;5677;48.488;13.436;2023-06-04T03:29:15;19.70;55.70
11239;DHT22;5677;48.488;13.436;2023-06-04T03:31:44;19.70;55.70
11239;DHT22;5677;48.488;13.436;2023-06-04T03:34:11;19.70;55.70
11239;DHT22;5677;48.488;13.436;2023-06-04T03:36:38;19.70;56.40
11239;DHT22;5677;48.488;13.436;2023-06-04T03:39:05;19.70;55.80
11239;DHT22;5677;48.488;13.436;2023-06-04T03:41:31;19.70;55.80
11239;DHT22;5677;48.488;13.436;2023-06-04T03:43:58;19.70;55.80
11239;DHT22;5677;48.488;13.436;2023-06-04T03:46:26;19.70;55.80
11239;DHT22;5677;48.488;13.436;2023-06-04T03:48:57;19.70;55.90
11239;DHT22;5677;48.488;13.436;2023-06-04T03:51:23;19.70;55.90
11239;DHT22;5677;48.488;13.436;2023-06-04T03:53:50;19.70;56.00
11239;DHT22;5677;48.488;13.436;2023-06-04T03:56:17;19.70;56.10
11239;DHT22;5677;48.488;13.436;2023-06-04T03:58:45;19.70;56.10
11239;DHT22;5677;48.488;13.436;2023-06-04T04:01:12;19.70;56.20
11239;DHT22;5677;48.488;13.436;2023-06-04T04:03:40;19.70;56.10
11239;DHT22;5677;48.488;13.436;2023-06-04T04:06:09;19.60;56.00
11239;DHT22;5677;48.488;13.436;2023-06-04T04:08:36;19.60;56.10
11239;DHT22;5677;48.488;13.436;2023-06-04T04:11:07;19.70;56.10
11239;DHT22;5677;48.488;13.436;2023-06-04T04:13:34;19.60;56.20
11239;DHT22;5677;48.488;13.436;2023-06-04T04:16:01;19.60;56.20
11239;DHT22;5677;48.488;13.436;2023-06-04T04:18:27;19.60;56.50
11239;DHT22;5677;48.488;13.436;2023-06-04T04:20:55;19.70;56.80
11239;DHT22;5677;48.488;13.436;2023-06-04T04:23:23;19.60;56.80
11239;DHT22;5677;48.488;13.436;2023-06-04T04:25:50;19.60;56.90
11239;DHT22;5677;48.488;13.436;2023-06-04T04:28:17;19.60;56.90
11239;DHT22;5677;48.488;13.436;2023-06-04T04:30:45;19.60;57.00
11239;DHT22;5677;48.488;13.436;2023-06-04T04:33:12;19.70;57.30
11239;DHT22;5677;48.488;13.436;2023-06-04T04:35:41;19.70;58.00
11239;DHT22;5677;48.488;13.436;2023-06-04T04:38:12;19.70;57.60
11239;DHT22;5677;48.488;13.436;2023-06-04T04:40:39;19.70;58.00
11239;DHT22;5677;48.488;13.436;2023-06-04T04:43:06;19.70;58.50
11239;DHT22;5677;48.488;13.436;2023-06-04T04:45:32;19.70;58.40
11239;DHT22;5677;48.488;13.436;2023-06-04T04:47:59;19.70;58.70
11239;DHT22;5677;48.488;13.436;2023-06-04T04:50:26;19.70;58.60
11239;DHT22;5677;48.488;13.436;2023-06-04T04:52:52;19.70;58.80
11239;DHT22;5677;48.488;13.436;2023-06-04T04:55:20;19.70;58.60
11239;DHT22;5677;48.488;13.436;2023-06-04T04:57:47;19.70;58.20
11239;DHT22;5677;48.488;13.436;2023-06-04T05:00:15;19.70;58.40
11239;DHT22;5677;48.488;13.436;2023-06-04T05:02:42;19.70;58.70
11239;DHT22;5677;48.488;13.436;2023-06-04T05:05:09;19.70;58.70
11239;DHT22;5677;48.488;13.436;2023-06-04T05:07:36;19.70;59.30
11239;DHT22;5677;48.488;13.436;2023-06-04T05:10:03;19.70;60.90
11239;DHT22;5677;48.488;13.436;2023-06-04T05:12:32;19.70;62.40
11239;DHT22;5677;48.488;13.436;2023-06-04T05:14:58;19.70;61.80
11239;DHT22;5677;48.488;13.436;2023-06-04T05:17:25;19.70;62.60
11239;DHT22;5677;48.488;13.436;2023-06-04T05:19:55;19.70;63.60
11239;DHT22;5677;48.488;13.436;2023-06-04T05:22:30;19.70;64.10
11239;DHT22;5677;48.488;13.436;2023-06-04T05:24:58;19.70;63.30
11239;DHT22;5677;48.488;13.436;2023-06-04T05:27:26;19.70;63.20
11239;DHT22;5677;48.488;13.436;2023-06-04T05:29:54;19.70;62.60
11239;DHT22;5677;48.488;13.436;2023-06-04T05:32:21;19.80;60.10
11239;DHT22;5677;48.488;13.436;2023-06-04T05:34:49;19.80;56.50
11239;DHT22;5677;48.488;13.436;2023-06-04T05:37:15;19.70;54.90
11239;DHT22;5677;48.488;13.436;2023-06-04T05:39:42;19.80;54.60
11239;DHT22;5677;48.488;13.436;2023-06-04T05:42:09;19.80;54.30
11239;DHT22;5677;48.488;13.436;2023-06-04T05:44:36;19.80;54.30
11239;DHT22;5677;48.488;13.436;2023-06-04T05:47:04;19.80;54.40
11239;DHT22;5677;48.488;13.436;2023-06-04T05:49:33;19.80;54.00
11239;DHT22;5677;48.488;13.436;2023-06-04T05:52:00;19.80;53.80
11239;DHT22;5677;48.488;13.436;2023-06-04T05:54:28;19.80;53.60
11239;DHT22;5677;48.488;13.436;2023-06-04T05:56:55;19.80;53.50
11239;DHT22;5677;48.488;13.436;2023-06-04T05:59:22;19.90;53.30
11239;DHT22;5677;48.488;13.436;2023-06-04T06:01:49;19.90;53.20
11239;DHT22;5677;48.488;13.436;2023-06-04T06:04:17;19.90;53.20
11239;DHT22;5677;48.488;13.436;2023-06-04T06:06:44;19.90;53.20
11239;DHT22;5677;48.488;13.436;2023-06-04T06:09:12;19.90;53.10
11239;DHT22;5677;48.488;13.436;2023-06-04T06:11:40;19.90;53.10
11239;DHT22;5677;48.488;13.436;2023-06-04T06:14:07;20.00;53.10
11239;DHT22;5677;48.488;13.436;2023-06-04T06:16:33;20.00;53.20
11239;DHT22;5677;48.488;13.436;2023-06-04T06:19:00;20.00;53.20
11239;DHT22;5677;48.488;13.436;2023-06-04T06:21:28;20.00;53.00
11239;DHT22;5677;48.488;13.436;2023-06-04T06:23:55;20.00;53.00
11239;DHT22;5677;48.488;13.436;2023-06-04T06:26:22;20.00;52.90
11239;DHT22;5677;48.488;13.436;2023-06-04T06:28:49;20.10;53.00
11239;DHT22;5677;48.488;13.436;2023-06-04T06:31:16;20.10;53.00
11239;DHT22;5677;48.488;13.436;2023-06-04T06:33:43;20.10;53.00
11239;DHT22;5677;48.488;13.436;2023-06-04T06:36:10;20.10;53.00
11239;DHT22;5677;48.488;13.436;2023-06-04T06:38:39;20.10;52.90
11239;DHT22;5677;48.488;13.436;2023-06-04T06:41:07;20.10;52.90
11239;DHT22;5677;48.488;13.436;2023-06-04T06:43:35;20.10;52.90
11239;DHT22;5677;48.488;13.436;2023-06-04T06:46:02;20.20;52.70
11239;DHT22;5677;48.488;13.436;2023-06-04T06:48:28;20.20;50.10
11239;DHT22;5677;48.488;13.436;2023-06-04T06:50:55;20.10;50.70
11239;DHT22;5677;48.488;13.436;2023-06-04T06:53:22;20.20;50.90
11239;DHT22;5677;48.488;13.436;2023-06-04T06:55:50;20.20;48.50
11239;DHT22;5677;48.488;13.436;2023-06-04T06:58:17;20.20;49.90
11239;DHT22;5677;48.488;13.436;2023-06-04T07:00:43;20.20;51.00
11239;DHT22;5677;48.488;13.436;2023-06-04T07:03:10;20.20;51.50
11239;DHT22;5677;48.488;13.436;2023-06-04T07:05:37;20.20;50.30
11239;DHT22;5677;48.488;13.436;2023-06-04T07:08:04;20.20;49.60
11239;DHT22;5677;48.488;13.436;2023-06-04T07:10:30;20.20;49.00
11239;DHT22;5677;48.488;13.436;2023-06-04T07:12:59;20.20;49.20
11239;DHT22;5677;48.488;13.436;2023-06-04T07:15:25;20.20;50.10
11239;DHT22;5677;48.488;13.436;2023-06-04T07:17:52;20.20;48.40
11239;DHT22;5677;48.488;13.436;2023-06-04T07:20:19;20.20;48.30
11239;DHT22;5677;48.488;13.436;2023-06-04T07:22:45;20.20;48.50
11239;DHT22;5677;48.488;13.436;2023-06-04T07:25:12;20.20;48.40
11239;DHT22;5677;48.488;13.436;2023-06-04T07:27:39;20.20;47.80
11239;DHT22;5677;48.488;13.436;2023-06-04T07:30:09;20.20;48.50
11239;DHT22;5677;48.488;13.436;2023-06-04T07:32:36;20.20;47.80
11239;DHT22;5677;48.488;13.436;2023-06-04T07:35:03;20.20;46.20
11239;DHT22;5677;48.488;13.436;2023-06-04T07:37:30;20.20;46.30
11239;DHT22;5677;48.488;13.436;2023-06-04T07:39:57;20.20;47.50
11239;DHT22;5677;48.488;13.436;2023-06-04T07:42:23;20.30;47.60
11239;DHT22;5677;48.488;13.436;2023-06-04T07:44:50;20.20;47.00
11239;DHT22;5677;48.488;13.436;2023-06-04T07:47:18;20.20;47.10
11239;DHT22;5677;48.488;13.436;2023-06-04T07:49:45;20.30;48.60
11239;DHT22;5677;48.488;13.436;2023-06-04T07:52:12;20.30;49.40
11239;DHT22;5677;48.488;13.436;2023-06-04T07:54:40;20.40;50.20
11239;DHT22;5677;48.488;13.436;2023-06-04T07:57:07;20.30;50.20
11239;DHT22;5677;48.488;13.436;2023-06-04T07:59:34;20.40;50.20
11239;DHT22;5677;48.488;13.436;2023-06-04T08:02:01;20.40;50.20
11239;DHT22;5677;48.488;13.436;2023-06-04T08:04:29;20.40;50.20
11239;DHT22;5677;48.488;13.436;2023-06-04T08:06:56;20.40;50.30
11239;DHT22;5677;48.488;13.436;2023-06-04T08:09:23;20.40;50.40
11239;DHT22;5677;48.488;13.436;2023-06-04T08:11:50;20.40;50.40
11239;DHT22;5677;48.488;13.436;2023-06-04T08:14:18;20.40;50.50
11239;DHT22;5677;48.488;13.436;2023-06-04T08:16:47;20.50;50.70
11239;DHT22;5677;48.488;13.436;2023-06-04T08:19:14;20.50;50.70
11239;DHT22;5677;48.488;13.436;2023-06-04T08:21:42;20.50;50.70
11239;DHT22;5677;48.488;13.436;2023-06-04T08:24:10;20.50;50.70
11239;DHT22;5677;48.488;13.436;2023-06-04T08:26:37;20.50;50.70
11239;DHT22;5677;48.488;13.436;2023-06-04T08:29:03;20.50;49.80
11239;DHT22;5677;48.488;13.436;2023-06-04T08:31:30;20.50;49.10
11239;DHT22;5677;48.488;13.436;2023-06-04T08:33:57;20.50;49.50
11239;DHT22;5677;48.488;13.436;2023-06-04T08:36:24;20.50;50.00
11239;DHT22;5677;48.488;13.436;2023-06-04T08:38:52;20.50;50.30
11239;DHT22;5677;48.488;13.436;2023-06-04T08:41:24;20.50;50.50
11239;DHT22;5677;48.488;13.436;2023-06-04T08:43:56;20.50;50.80
11239;DHT22;5677;48.488;13.436;2023-06-04T08:46:23;20.50;51.10
11239;DHT22;5677;48.488;13.436;2023-06-04T08:48:50;20.50;51.30
11239;DHT22;5677;48.488;13.436;2023-06-04T08:51:17;20.50;51.40
11239;DHT22;5677;48.488;13.436;2023-06-04T08:53:44;20.50;51.60
11239;DHT22;5677;48.488;13.436;2023-06-04T08:56:14;20.50;51.70
11239;DHT22;5677;48.488;13.436;2023-06-04T08:58:43;20.50;51.90
11239;DHT22;5677;48.488;13.436;2023-06-04T09:01:11;20.50;51.90
11239;DHT22;5677;48.488;13.436;2023-06-04T09:03:38;20.50;51.90
11239;DHT22;5677;48.488;13.436;2023-06-04T09:06:05;20.60;51.90
11239;DHT22;5677;48.488;13.436;2023-06-04T09:08:34;20.60;52.10
11239;DHT22;5677;48.488;13.436;2023-06-04T09:11:05;20.60;52.10
11239;DHT22;5677;48.488;13.436;2023-06-04T09:13:34;20.60;52.30
11239;DHT22;5677;48.488;13.436;2023-06-04T09:16:02;20.60;52.70
11239;DHT22;5677;48.488;13.436;2023-06-04T09:18:29;20.60;52.80
11239;DHT22;5677;48.488;13.436;2023-06-04T09:21:03;20.60;53.00
11239;DHT22;5677;48.488;13.436;2023-06-04T09:23:31;20.60;52.80
11239;DHT22;5677;48.488;13.436;2023-06-04T09:26:06;20.60;53.10
11239;DHT22;5677;48.488;13.436;2023-06-04T09:28:34;20.60;53.20
11239;DHT22;5677;48.488;13.436;2023-06-04T09:31:01;20.60;53.50
11239;DHT22;5677;48.488;13.436;2023-06-04T09:33:28;20.60;52.80
11239;DHT22;5677;48.488;13.436;2023-06-04T09:35:56;20.60;52.70
11239;DHT22;5677;48.488;13.436;2023-06-04T09:38:23;20.70;53.20
11239;DHT22;5677;48.488;13.436;2023-06-04T09:40:50;20.70;53.00
11239;DHT22;5677;48.488;13.436;2023-06-04T09:43:23;20.70;51.90
11239;DHT22;5677;48.488;13.436;2023-06-04T09:45:51;20.70;51.30
11239;DHT22;5677;48.488;13.436;2023-06-04T09:48:21;20.70;52.40
11239;DHT22;5677;48.488;13.436;2023-06-04T09:50:48;20.70;51.60
11239;DHT22;5677;48.488;13.436;2023-06-04T09:53:15;20.70;50.40
11239;DHT22;5677;48.488;13.436;2023-06-04T09:55:42;20.70;49.90
11239;DHT22;5677;48.488;13.436;2023-06-04T09:58:11;20.80;51.30
11239;DHT22;5677;48.488;13.436;2023-06-04T10:00:38;20.80;52.40
11239;DHT22;5677;48.488;13.436;2023-06-04T10:03:10;20.80;52.60
11239;DHT22;5677;48.488;13.436;2023-06-04T10:05:38;20.80;52.90
11239;DHT22;5677;48.488;13.436;2023-06-04T10:08:05;20.80;51.80
11239;DHT22;5677;48.488;13.436;2023-06-04T10:10:36;20.80;49.70
11239;DHT22;5677;48.488;13.436;2023-06-04T10:13:05;20.80;49.10
11239;DHT22;5677;48.488;13.436;2023-06-04T10:15:35;20.80;49.20
11239;DHT22;5677;48.488;13.436;2023-06-04T10:18:02;20.80;49.50
11239;DHT22;5677;48.488;13.436;2023-06-04T10:20:31;20.80;50.00
11239;DHT22;5677;48.488;13.436;2023-06-04T10:22:58;20.90;50.60
11239;DHT22;5677;48.488;13.436;2023-06-04T10:25:28;20.90;51.00
11239;DHT22;5677;48.488;13.436;2023-06-04T10:27:56;20.90;51.20
11239;DHT22;5677;48.488;13.436;2023-06-04T10:30:23;20.90;51.20
11239;DHT22;5677;48.488;13.436;2023-06-04T10:32:50;20.90;51.60
11239;DHT22;5677;48.488;13.436;2023-06-04T10:35:17;20.90;51.70
11239;DHT22;5677;48.488;13.436;2023-06-04T10:37:45;20.90;51.50
11239;DHT22;5677;48.488;13.436;2023-06-04T10:40:13;20.90;51.60
11239;DHT22;5677;48.488;13.436;2023-06-04T10:42:42;20.90;50.10
11239;DHT22;5677;48.488;13.436;2023-06-04T10:45:09;20.90;49.50
11239;DHT22;5677;48.488;13.436;2023-06-04T10:47:37;20.90;49.20
11239;DHT22;5677;48.488;13.436;2023-06-04T10:50:08;20.90;50.00
11239;DHT22;5677;48.488;13.436;2023-06-04T10:52:36;20.90;50.60
11239;DHT22;5677;48.488;13.436;2023-06-04T10:55:05;20.90;50.90
11239;DHT22;5677;48.488;13.436;2023-06-04T10:57:34;20.90;50.80
11239;DHT22;5677;48.488;13.436;2023-06-04T11:00:02;20.90;51.20
11239;DHT22;5677;48.488;13.436;2023-06-04T11:02:31;20.90;51.30
11239;DHT22;5677;48.488;13.436;2023-06-04T11:04:59;20.90;51.40
11239;DHT22;5677;48.488;13.436;2023-06-04T11:07:28;20.90;51.90
11239;DHT22;5677;48.488;13.436;2023-06-04T11:09:55;20.90;51.80
11239;DHT22;5677;48.488;13.436;2023-06-04T11:12:23;20.90;51.10
11239;DHT22;5677;48.488;13.436;2023-06-04T11:14:54;21.00;51.70
11239;DHT22;5677;48.488;13.436;2023-06-04T11:17:21;20.90;52.00
11239;DHT22;5677;48.488;13.436;2023-06-04T11:19:48;21.00;51.90
11239;DHT22;5677;48.488;13.436;2023-06-04T11:22:15;20.90;51.80
11239;DHT22;5677;48.488;13.436;2023-06-04T11:24:42;21.00;51.20
11239;DHT22;5677;48.488;13.436;2023-06-04T11:27:08;20.90;51.40
11239;DHT22;5677;48.488;13.436;2023-06-04T11:29:37;21.00;50.30
11239;DHT22;5677;48.488;13.436;2023-06-04T11:32:04;21.00;49.80
11239;DHT22;5677;48.488;13.436;2023-06-04T11:34:31;21.00;50.00
11239;DHT22;5677;48.488;13.436;2023-06-04T11:37:07;21.00;51.90
11239;DHT22;5677;48.488;13.436;2023-06-04T11:39:35;21.00;51.60
11239;DHT22;5677;48.488;13.436;2023-06-04T11:42:04;21.00;51.00
11239;DHT22;5677;48.488;13.436;2023-06-04T11:44:31;21.00;50.70
11239;DHT22;5677;48.488;13.436;2023-06-04T11:46:59;21.00;50.50
11239;DHT22;5677;48.488;13.436;2023-06-04T11:49:27;21.00;50.50
11239;DHT22;5677;48.488;13.436;2023-06-04T11:51:54;21.00;49.40
11239;DHT22;5677;48.488;13.436;2023-06-04T11:54:21;21.00;48.60
11239;DHT22;5677;48.488;13.436;2023-06-04T11:56:49;21.00;48.30
11239;DHT22;5677;48.488;13.436;2023-06-04T11:59:18;21.00;47.70
11239;DHT22;5677;48.488;13.436;2023-06-04T12:01:46;21.00;46.80
11239;DHT22;5677;48.488;13.436;2023-06-04T12:04:16;21.00;46.60
11239;DHT22;5677;48.488;13.436;2023-06-04T12:06:52;21.10;47.10
11239;DHT22;5677;48.488;13.436;2023-06-04T12:09:21;21.10;47.30
11239;DHT22;5677;48.488;13.436;2023-06-04T12:11:48;21.10;46.50
11239;DHT22;5677;48.488;13.436;2023-06-04T12:14:16;21.10;46.30
11239;DHT22;5677;48.488;13.436;2023-06-04T12:16:53;21.10;46.20
11239;DHT22;5677;48.488;13.436;2023-06-04T12:19:21;21.10;46.70
11239;DHT22;5677;48.488;13.436;2023-06-04T12:21:59;21.10;47.00
11239;DHT22;5677;48.488;13.436;2023-06-04T12:24:27;21.10;46.80
11239;DHT22;5677;48.488;13.436;2023-06-04T12:27:02;21.10;46.50
11239;DHT22;5677;48.488;13.436;2023-06-04T12:29:29;21.10;46.80
11239;DHT22;5677;48.488;13.436;2023-06-04T12:32:02;21.10;46.90
11239;DHT22;5677;48.488;13.436;2023-06-04T12:34:32;21.10;47.30
11239;DHT22;5677;48.488;13.436;2023-06-04T12:36:59;21.10;47.70
11239;DHT22;5677;48.488;13.436;2023-06-04T12:39:26;21.20;47.90
11239;DHT22;5677;48.488;13.436;2023-06-04T12:41:52;21.20;48.10
11239;DHT22;5677;48.488;13.436;2023-06-04T12:44:19;21.20;48.20
11239;DHT22;5677;48.488;13.436;2023-06-04T12:46:46;21.10;48.40
11239;DHT22;5677;48.488;13.436;2023-06-04T12:49:13;21.20;48.20
11239;DHT22;5677;48.488;13.436;2023-06-04T12:51:41;21.20;48.00
11239;DHT22;5677;48.488;13.436;2023-06-04T12:54:09;21.20;48.00
11239;DHT22;5677;48.488;13.436;2023-06-04T12:56:36;21.20;48.30
11239;DHT22;5677;48.488;13.436;2023-06-04T12:59:02;21.20;48.30
11239;DHT22;5677;48.488;13.436;2023-06-04T13:01:29;21.10;48.60
11239;DHT22;5677;48.488;13.436;2023-06-04T13:03:56;21.20;48.70
11239;DHT22;5677;48.488;13.436;2023-06-04T13:06:23;21.10;48.00
11239;DHT22;5677;48.488;13.436;2023-06-04T13:08:51;21.10;47.00
11239;DHT22;5677;48.488;13.436;2023-06-04T13:11:18;21.20;46.80
11239;DHT22;5677;48.488;13.436;2023-06-04T13:13:44;21.20;46.50
11239;DHT22;5677;48.488;13.436;2023-06-04T13:16:11;21.20;46.10
11239;DHT22;5677;48.488;13.436;2023-06-04T13:18:38;21.20;45.90
11239;DHT22;5677;48.488;13.436;2023-06-04T13:21:04;21.20;45.90
11239;DHT22;5677;48.488;13.436;2023-06-04T13:23:31;21.20;46.00
11239;DHT22;5677;48.488;13.436;2023-06-04T13:25:59;21.10;45.80
11239;DHT22;5677;48.488;13.436;2023-06-04T13:28:26;21.10;45.90
11239;DHT22;5677;48.488;13.436;2023-06-04T13:30:53;21.10;45.90
11239;DHT22;5677;48.488;13.436;2023-06-04T13:33:20;21.10;46.40
11239;DHT22;5677;48.488;13.436;2023-06-04T13:35:47;21.20;46.70
11239;DHT22;5677;48.488;13.436;2023-06-04T13:38:13;21.20;46.50
11239;DHT22;5677;48.488;13.436;2023-06-04T13:40:40;21.10;46.50
11239;DHT22;5677;48.488;13.436;2023-06-04T13:43:09;21.10;46.20
11239;DHT22;5677;48.488;13.436;2023-06-04T13:45:36;21.20;45.80
11239;DHT22;5677;48.488;13.436;2023-06-04T13:48:03;21.10;45.50
11239;DHT22;5677;48.488;13.436;2023-06-04T13:50:32;21.20;46.10
11239;DHT22;5677;48.488;13.436;2023-06-04T13:52:59;21.20;46.00
11239;DHT22;5677;48.488;13.436;2023-06-04T13:55:26;21.10;45.90
11239;DHT22;5677;48.488;13.436;2023-06-04T13:57:53;21.10;46.20
11239;DHT22;5677;48.488;13.436;2023-06-04T14:00:21;21.20;46.30
11239;DHT22;5677;48.488;13.436;2023-06-04T14:02:48;21.20;46.20
11239;DHT22;5677;48.488;13.436;2023-06-04T14:05:15;21.10;45.40
11239;DHT22;5677;48.488;13.436;2023-06-04T14:07:43;21.20;43.60
11239;DHT22;5677;48.488;13.436;2023-06-04T14:10:10;21.20;41.40
11239;DHT22;5677;48.488;13.436;2023-06-04T14:12:37;21.20;41.70
11239;DHT22;5677;48.488;13.436;2023-06-04T14:15:05;21.20;42.00
11239;DHT22;5677;48.488;13.436;2023-06-04T14:17:34;21.20;41.90
11239;DHT22;5677;48.488;13.436;2023-06-04T14:20:01;21.20;41.80
11239;DHT22;5677;48.488;13.436;2023-06-04T14:22:32;21.30;42.40
11239;DHT22;5677;48.488;13.436;2023-06-04T14:24:59;21.30;42.20
11239;DHT22;5677;48.488;13.436;2023-06-04T14:27:26;21.30;42.30
11239;DHT22;5677;48.488;13.436;2023-06-04T14:29:53;21.30;43.00
11239;DHT22;5677;48.488;13.436;2023-06-04T14:32:20;21.30;43.80
11239;DHT22;5677;48.488;13.436;2023-06-04T14:34:49;21.30;44.20
11239;DHT22;5677;48.488;13.436;2023-06-04T14:37:15;21.30;44.60
11239;DHT22;5677;48.488;13.436;2023-06-04T14:39:42;21.30;44.90
11239;DHT22;5677;48.488;13.436;2023-06-04T14:42:09;21.30;45.30
11239;DHT22;5677;48.488;13.436;2023-06-04T14:44:36;21.30;45.40
11239;DHT22;5677;48.488;13.436;2023-06-04T14:47:03;21.30;45.70
11239;DHT22;5677;48.488;13.436;2023-06-04T14:49:30;21.30;45.90
11239;DHT22;5677;48.488;13.436;2023-06-04T14:51:58;21.30;46.00
11239;DHT22;5677;48.488;13.436;2023-06-04T14:54:25;21.30;46.10
11239;DHT22;5677;48.488;13.436;2023-06-04T14:56:52;21.20;46.10
11239;DHT22;5677;48.488;13.436;2023-06-04T14:59:19;21.20;46.30
11239;DHT22;5677;48.488;13.436;2023-06-04T15:01:46;21.20;46.30
11239;DHT22;5677;48.488;13.436;2023-06-04T15:04:13;21.20;46.40
11239;DHT22;5677;48.488;13.436;2023-06-04T15:06:39;21.20;46.60
11239;DHT22;5677;48.488;13.436;2023-06-04T15:09:07;21.20;46.70
11239;DHT22;5677;48.488;13.436;2023-06-04T15:11:34;21.20;46.70
11239;DHT22;5677;48.488;13.436;2023-06-04T15:14:01;21.20;46.80
11239;DHT22;5677;48.488;13.436;2023-06-04T15:16:28;21.20;47.00
11239;DHT22;5677;48.488;13.436;2023-06-04T15:18:55;21.10;47.10
11239;DHT22;5677;48.488;13.436;2023-06-04T15:21:22;21.20;47.20
11239;DHT22;5677;48.488;13.436;2023-06-04T15:23:49;21.20;47.20
11239;DHT22;5677;48.488;13.436;2023-06-04T15:26:17;21.20;47.20
11239;DHT22;5677;48.488;13.436;2023-06-04T15:28:44;21.20;47.20
11239;DHT22;5677;48.488;13.436;2023-06-04T15:31:10;21.10;47.20
11239;DHT22;5677;48.488;13.436;2023-06-04T15:33:37;21.20;47.20